Time;durP1;ratioP1;P1;durP2;ratioP2;P2;SDS_P1;SDS_P2;PMS_P1;PMS_P2;Temp;Humidity;BMP_temperature;BMP_pressure;BME280_temperature;BME280_humidity;BME280_pressure;Samples;Min_cycle;Max_cycle;Signal;HPM_P1;HPM_P2
2022/09/21 00:01:53;;;;;;;12.80;9.10;;;9.30;99.90;;;;;;5041125;28;20473;-86
2022/09/21 00:04:21;;;;;;;9.63;7.37;;;9.30;99.90;;;;;;5040267;28;20429;-89
2022/09/21 00:06:48;;;;;;;8.07;7.27;;;9.20;99.90;;;;;;5037084;28;20445;-85
2022/09/21 00:09:15;;;;;;;11.33;8.10;;;9.20;99.90;;;;;;5037815;28;20438;-86
2022/09/21 00:11:41;;;;;;;8.83;7.93;;;9.10;99.90;;;;;;5037615;28;20472;-86
2022/09/21 00:14:11;;;;;;;10.10;6.43;;;9.20;99.90;;;;;;5036473;28;20484;-87
2022/09/21 00:16:38;;;;;;;11.53;7.23;;;9.10;99.90;;;;;;5038182;28;20449;-86
2022/09/21 00:19:06;;;;;;;11.57;7.57;;;9.10;99.90;;;;;;5036809;28;20435;-86
2022/09/21 00:21:36;;;;;;;10.63;7.13;;;9.10;99.90;;;;;;5036558;28;20516;-86
2022/09/21 00:24:03;;;;;;;10.53;7.47;;;9.00;99.90;;;;;;5066545;28;20446;-86
2022/09/21 00:26:31;;;;;;;9.53;7.10;;;9.00;99.90;;;;;;5049898;28;20441;-86
2022/09/21 00:28:59;;;;;;;10.13;7.57;;;9.00;99.90;;;;;;5035567;28;21098;-85
2022/09/21 00:31:28;;;;;;;8.57;7.20;;;8.90;99.90;;;;;;5036188;28;20461;-85
2022/09/21 00:33:54;;;;;;;12.90;8.47;;;8.90;99.90;;;;;;5035548;28;20474;-87
2022/09/21 00:36:23;;;;;;;9.17;7.07;;;8.90;99.90;;;;;;5036872;28;20502;-86
2022/09/21 00:38:53;;;;;;;9.07;8.03;;;8.90;99.90;;;;;;5033618;28;20845;-86
2022/09/21 00:41:21;;;;;;;9.20;7.40;;;8.90;99.90;;;;;;5036419;28;20476;-86
2022/09/21 00:43:49;;;;;;;12.03;8.10;;;8.90;99.90;;;;;;5046351;28;20784;-86
2022/09/21 00:46:25;;;;;;;11.50;7.57;;;8.80;99.90;;;;;;5043505;28;20513;-86
2022/09/21 00:48:52;;;;;;;8.73;7.83;;;8.80;99.90;;;;;;5037709;28;20441;-87
2022/09/21 00:51:18;;;;;;;9.90;7.93;;;8.80;99.90;;;;;;5034762;28;20470;-86
2022/09/21 00:53:46;;;;;;;14.03;8.70;;;8.70;99.90;;;;;;5036116;28;20474;-86
2022/09/21 00:56:15;;;;;;;12.43;8.70;;;8.70;99.90;;;;;;5053876;28;20424;-86
2022/09/21 00:58:48;;;;;;;22.00;9.40;;;8.70;99.90;;;;;;5036819;28;20488;-86
2022/09/21 01:01:17;;;;;;;12.87;9.40;;;8.60;99.90;;;;;;5035593;28;20496;-86
2022/09/21 01:03:45;;;;;;;13.53;10.70;;;8.60;99.90;;;;;;5033818;28;20434;-86
2022/09/21 01:06:12;;;;;;;13.80;9.53;;;8.70;99.90;;;;;;5035447;28;20438;-86
2022/09/21 01:08:40;;;;;;;14.90;10.00;;;8.60;99.90;;;;;;5033873;28;20437;-85
2022/09/21 01:11:25;;;;;;;11.57;9.27;;;8.70;99.90;;;;;;5036071;28;20453;-86
2022/09/21 01:14:07;;;;;;;12.03;9.00;;;8.60;99.90;;;;;;5034222;28;20469;-86
2022/09/21 01:16:42;;;;;;;10.50;9.20;;;8.60;99.90;;;;;;5033111;28;20438;-85
2022/09/21 01:19:27;;;;;;;13.60;10.30;;;8.60;99.90;;;;;;5038603;28;20449;-84
2022/09/21 01:22:03;;;;;;;10.20;8.10;;;8.60;99.90;;;;;;5038816;28;20539;-85
2022/09/21 01:24:49;;;;;;;13.13;9.73;;;8.50;99.90;;;;;;5034493;28;20854;-84
2022/09/21 01:27:48;;;;;;;11.63;9.57;;;8.40;99.90;;;;;;5042452;28;20425;-84
2022/09/21 01:30:19;;;;;;;14.43;10.30;;;8.40;99.90;;;;;;5062498;28;20449;-85
2022/09/21 01:32:51;;;;;;;14.03;10.43;;;8.50;99.90;;;;;;5051873;28;20449;-85
2022/09/21 01:35:21;;;;;;;13.60;9.93;;;8.50;99.90;;;;;;5038536;28;20504;-85
2022/09/21 01:37:54;;;;;;;16.83;11.20;;;8.50;99.90;;;;;;5038284;28;20438;-87
2022/09/21 01:40:24;;;;;;;13.83;11.03;;;8.50;99.90;;;;;;5038768;28;20452;-85
2022/09/21 01:42:53;;;;;;;12.90;9.10;;;8.50;99.90;;;;;;5038795;28;20468;-86
2022/09/21 01:45:27;;;;;;;10.53;9.30;;;8.50;99.90;;;;;;5041893;28;20464;-85
2022/09/21 01:47:57;;;;;;;17.47;10.30;;;8.50;99.90;;;;;;5046208;28;20850;-86
2022/09/21 01:50:25;;;;;;;14.83;10.60;;;8.50;99.90;;;;;;5042514;28;20449;-86
2022/09/21 01:52:58;;;;;;;14.13;10.60;;;8.50;99.90;;;;;;5039787;28;20484;-86
2022/09/21 01:55:29;;;;;;;11.30;9.77;;;8.50;99.90;;;;;;5035166;28;20477;-86
2022/09/21 01:58:00;;;;;;;11.43;10.40;;;8.50;99.90;;;;;;5034827;28;20450;-85
2022/09/21 02:00:30;;;;;;;16.60;9.63;;;8.50;99.90;;;;;;5034972;28;20481;-85
2022/09/21 02:03:03;;;;;;;13.80;10.30;;;8.40;99.90;;;;;;5044339;28;20445;-85
2022/09/21 02:05:30;;;;;;;15.30;10.73;;;8.40;99.90;;;;;;5038532;28;20438;-85
2022/09/21 02:07:58;;;;;;;11.50;10.13;;;8.40;99.90;;;;;;5034829;28;20833;-85
2022/09/21 02:10:30;;;;;;;11.23;9.97;;;8.40;99.90;;;;;;5036338;28;20471;-85
2022/09/21 02:13:01;;;;;;;11.00;9.13;;;8.30;99.90;;;;;;5049357;28;20422;-86
2022/09/21 02:15:37;;;;;;;11.53;8.73;;;8.30;99.90;;;;;;5057837;28;20462;-84
2022/09/21 02:18:08;;;;;;;18.47;10.00;;;8.20;99.90;;;;;;5064771;28;20425;-85
2022/09/21 02:20:42;;;;;;;9.87;8.87;;;8.20;99.90;;;;;;5057184;28;20470;-86
2022/09/21 02:23:14;;;;;;;13.40;9.87;;;8.20;99.90;;;;;;5050799;28;20437;-85
2022/09/21 02:25:46;;;;;;;10.60;9.03;;;8.10;99.90;;;;;;5035039;28;20468;-86
2022/09/21 02:28:24;;;;;;;8.57;7.70;;;8.10;99.90;;;;;;5035469;28;20498;-86
2022/09/21 02:30:59;;;;;;;9.00;8.10;;;8.10;99.90;;;;;;5035330;28;20464;-87
2022/09/21 02:33:31;;;;;;;9.47;7.90;;;8.10;99.90;;;;;;5054487;28;20414;-85
2022/09/21 02:36:04;;;;;;;11.30;7.73;;;8.00;99.90;;;;;;5049581;28;20505;-86
2022/09/21 02:38:36;;;;;;;8.80;7.43;;;8.00;99.90;;;;;;5032768;28;20529;-86
2022/09/21 02:41:07;;;;;;;9.90;7.23;;;7.90;99.90;;;;;;5035116;28;20496;-85
2022/09/21 02:43:39;;;;;;;9.70;8.77;;;7.90;99.90;;;;;;5035064;28;20440;-86
2022/09/21 02:46:14;;;;;;;15.00;8.23;;;7.90;99.90;;;;;;5045393;28;20432;-85
2022/09/21 02:48:46;;;;;;;14.70;10.10;;;7.90;99.90;;;;;;5050588;28;20831;-85
2022/09/21 02:51:16;;;;;;;11.97;9.60;;;7.90;99.90;;;;;;5034515;28;20503;-85
2022/09/21 02:53:46;;;;;;;9.93;8.10;;;7.90;99.90;;;;;;5046598;28;20441;-85
2022/09/21 02:56:14;;;;;;;14.03;9.50;;;7.80;99.90;;;;;;5042006;28;20434;-85
2022/09/21 02:58:46;;;;;;;11.60;8.80;;;7.80;99.90;;;;;;5038725;28;20446;-85
2022/09/21 03:01:16;;;;;;;10.47;8.47;;;7.70;99.90;;;;;;5034865;28;21016;-85
2022/09/21 03:03:43;;;;;;;12.60;10.03;;;7.70;99.90;;;;;;5032866;28;20926;-86
2022/09/21 03:06:10;;;;;;;15.17;9.13;;;7.70;99.90;;;;;;5033967;28;20513;-85
2022/09/21 03:08:37;;;;;;;13.17;9.60;;;7.70;99.90;;;;;;5034240;28;20532;-86
2022/09/21 03:11:04;;;;;;;12.17;9.53;;;7.60;99.90;;;;;;5037044;28;20461;-85
2022/09/21 03:13:31;;;;;;;12.40;10.27;;;7.70;99.90;;;;;;5037208;28;20449;-86
2022/09/21 03:16:02;;;;;;;13.03;10.17;;;7.70;99.90;;;;;;5038045;28;21046;-84
2022/09/21 03:18:31;;;;;;;13.87;10.17;;;7.60;99.90;;;;;;5049235;28;20962;-85
2022/09/21 03:20:58;;;;;;;11.47;9.87;;;7.60;99.90;;;;;;5044935;28;20464;-85
2022/09/21 03:23:25;;;;;;;19.27;11.30;;;7.60;99.90;;;;;;5039421;28;20448;-85
2022/09/21 03:25:53;;;;;;;14.40;9.90;;;7.60;99.90;;;;;;5038285;28;20448;-86
2022/09/21 03:28:21;;;;;;;13.67;11.37;;;7.60;99.90;;;;;;5039747;28;20500;-85
2022/09/21 03:30:49;;;;;;;18.20;12.27;;;7.60;99.90;;;;;;5038552;28;20535;-85
2022/09/21 03:33:15;;;;;;;17.17;10.77;;;7.50;99.90;;;;;;5039129;28;20442;-85
2022/09/21 03:35:43;;;;;;;16.93;12.83;;;7.50;99.90;;;;;;5039385;28;20486;-84
2022/09/21 03:38:10;;;;;;;17.07;12.20;;;7.50;99.90;;;;;;5045200;28;20425;-83
2022/09/21 03:40:37;;;;;;;19.30;13.83;;;7.50;99.90;;;;;;5063091;28;20468;-84
2022/09/21 03:43:03;;;;;;;15.47;13.70;;;7.50;99.90;;;;;;5053385;28;20442;-85
2022/09/21 03:45:30;;;;;;;19.77;13.90;;;7.50;99.90;;;;;;5039368;28;20461;-85
2022/09/21 03:47:58;;;;;;;18.27;13.37;;;7.50;99.90;;;;;;5038044;28;20449;-85
2022/09/21 03:50:27;;;;;;;17.63;15.40;;;7.50;99.90;;;;;;5058051;28;20437;-85
2022/09/21 03:52:56;;;;;;;17.47;13.50;;;7.50;99.90;;;;;;5046091;28;20449;-86
2022/09/21 03:55:26;;;;;;;16.23;13.03;;;7.40;99.90;;;;;;5043289;28;20851;-86
2022/09/21 03:57:53;;;;;;;15.90;12.03;;;7.40;99.90;;;;;;5043594;28;20446;-85
2022/09/21 04:00:20;;;;;;;17.43;13.33;;;7.40;99.90;;;;;;5040964;28;20452;-85
2022/09/21 04:02:47;;;;;;;13.67;12.37;;;7.50;99.90;;;;;;5038221;28;20449;-85
2022/09/21 04:05:15;;;;;;;14.37;11.67;;;7.50;99.90;;;;;;5037619;28;20437;-85
2022/09/21 04:07:44;;;;;;;21.13;11.87;;;7.50;99.90;;;;;;5037385;28;20438;-85
2022/09/21 04:10:14;;;;;;;12.83;10.77;;;7.40;99.90;;;;;;5040871;28;21121;-85
2022/09/21 04:12:42;;;;;;;15.33;9.90;;;7.40;99.90;;;;;;5060341;28;20467;-84
2022/09/21 04:15:10;;;;;;;13.00;9.37;;;7.50;99.90;;;;;;5049628;28;20856;-85
2022/09/21 04:17:37;;;;;;;10.23;8.07;;;7.40;99.90;;;;;;5042820;28;20444;-85
2022/09/21 04:20:05;;;;;;;11.43;8.33;;;7.40;99.90;;;;;;5039243;28;20828;-85
2022/09/21 04:22:31;;;;;;;10.77;8.70;;;7.40;99.90;;;;;;5039291;28;20468;-84
2022/09/21 04:24:58;;;;;;;13.53;8.80;;;7.40;99.90;;;;;;5037752;28;20446;-85
2022/09/21 04:27:26;;;;;;;9.27;7.30;;;7.40;99.90;;;;;;5037684;28;20445;-85
2022/09/21 04:29:53;;;;;;;9.03;7.53;;;7.30;99.90;;;;;;5038682;28;20433;-85
2022/09/21 04:32:20;;;;;;;8.90;7.77;;;7.30;99.90;;;;;;5038082;28;20466;-87
2022/09/21 04:34:46;;;;;;;11.17;8.87;;;7.30;99.90;;;;;;5038415;28;20466;-85
2022/09/21 04:37:13;;;;;;;11.70;8.50;;;7.30;99.90;;;;;;5047245;28;20426;-84
2022/09/21 04:39:40;;;;;;;8.60;7.30;;;7.30;99.90;;;;;;5063496;28;20432;-85
2022/09/21 04:42:07;;;;;;;11.50;7.80;;;7.30;99.90;;;;;;5069631;28;20520;-84
2022/09/21 04:44:35;;;;;;;9.90;8.77;;;7.20;99.90;;;;;;5058785;28;20442;-84
2022/09/21 04:47:02;;;;;;;9.47;7.90;;;7.20;99.90;;;;;;5056210;28;20468;-84
2022/09/21 04:49:29;;;;;;;11.30;9.00;;;7.10;99.90;;;;;;5053920;28;20442;-85
2022/09/21 04:51:56;;;;;;;11.27;8.77;;;7.10;99.90;;;;;;5038519;28;20460;-85
2022/09/21 04:54:22;;;;;;;10.80;8.17;;;7.10;99.90;;;;;;5036887;28;20433;-84
2022/09/21 04:56:49;;;;;;;11.10;8.77;;;7.10;99.90;;;;;;5038080;28;20442;-85
2022/09/21 04:59:16;;;;;;;8.60;7.70;;;7.00;99.90;;;;;;5036100;28;20438;-85
2022/09/21 05:01:44;;;;;;;10.77;8.77;;;7.00;99.90;;;;;;5039951;28;20445;-84
2022/09/21 05:04:11;;;;;;;19.90;9.07;;;7.00;99.90;;;;;;5051201;28;20445;-85
2022/09/21 05:06:37;;;;;;;13.10;11.37;;;7.00;99.90;;;;;;5042324;28;20440;-85
2022/09/21 05:11:48;;;;;;;14.77;11.20;;;7.10;99.90;;;;;;5039432;28;21001;-85
2022/09/21 05:14:15;;;;;;;17.20;12.30;;;7.10;99.90;;;;;;5038368;28;20815;-85
2022/09/21 05:16:43;;;;;;;28.23;13.87;;;7.10;99.90;;;;;;5036531;28;20482;-85
2022/09/21 05:19:10;;;;;;;15.83;11.20;;;7.10;99.90;;;;;;5038309;28;20947;-84
2022/09/21 05:21:37;;;;;;;18.13;12.67;;;7.10;99.90;;;;;;5037610;28;20464;-84
2022/09/21 05:24:04;;;;;;;17.67;12.47;;;7.10;99.90;;;;;;5049682;28;20441;-85
2022/09/21 05:26:31;;;;;;;18.87;13.70;;;7.10;99.90;;;;;;5047872;28;20514;-85
2022/09/21 05:28:58;;;;;;;15.77;11.57;;;7.10;99.90;;;;;;5037148;28;20434;-85
2022/09/21 05:31:38;;;;;;;19.20;13.20;;;7.20;99.90;;;;;;5035314;28;20454;-86
2022/09/21 05:34:20;;;;;;;18.50;11.10;;;7.20;99.90;;;;;;5037400;28;20433;-86
2022/09/21 05:36:53;;;;;;;17.43;14.43;;;7.20;99.90;;;;;;5042894;28;20458;-86
2022/09/21 05:39:21;;;;;;;19.37;13.43;;;7.20;99.90;;;;;;5059990;28;20441;-85
2022/09/21 05:41:48;;;;;;;16.43;12.37;;;7.30;99.90;;;;;;5057488;28;20462;-84
2022/09/21 05:44:15;;;;;;;21.77;14.60;;;7.30;99.90;;;;;;5052646;28;20976;-86
2022/09/21 05:46:47;;;;;;;17.93;12.07;;;7.30;99.90;;;;;;5045222;28;20699;-86
2022/09/21 05:49:20;;;;;;;19.27;12.57;;;7.30;99.90;;;;;;5040956;28;20442;-86
2022/09/21 05:51:58;;;;;;;15.20;12.97;;;7.40;99.90;;;;;;5052100;28;20969;-85
2022/09/21 05:54:38;;;;;;;14.90;11.60;;;7.40;99.90;;;;;;5060510;28;20445;-85
2022/09/21 05:57:12;;;;;;;14.87;11.33;;;7.40;99.90;;;;;;5049257;28;20496;-86
2022/09/21 05:59:51;;;;;;;22.90;13.07;;;7.40;99.90;;;;;;5039636;28;20457;-86
2022/09/21 06:02:28;;;;;;;19.73;12.33;;;7.50;99.90;;;;;;5036774;28;20466;-85
2022/09/21 06:04:59;;;;;;;17.87;11.17;;;7.50;99.90;;;;;;5040162;28;20437;-86
2022/09/21 06:07:26;;;;;;;14.30;12.23;;;7.50;99.90;;;;;;5042077;28;20445;-85
2022/09/21 06:09:53;;;;;;;18.03;13.40;;;7.50;99.90;;;;;;5038421;28;20441;-86
2022/09/21 06:12:19;;;;;;;15.17;12.40;;;7.50;99.90;;;;;;5039848;28;21006;-86
2022/09/21 06:14:46;;;;;;;13.63;11.60;;;7.60;99.90;;;;;;5037597;28;20511;-86
2022/09/21 06:17:13;;;;;;;15.70;12.97;;;7.60;99.90;;;;;;5033356;28;20456;-85
2022/09/21 06:19:41;;;;;;;16.43;13.00;;;7.70;99.90;;;;;;5036417;28;20442;-85
2022/09/21 06:22:09;;;;;;;13.93;12.10;;;7.80;99.90;;;;;;5040476;28;20530;-85
2022/09/21 06:24:36;;;;;;;16.10;11.93;;;7.70;99.90;;;;;;5049343;28;20442;-84
2022/09/21 06:27:03;;;;;;;12.67;9.53;;;7.70;99.90;;;;;;5059757;28;20446;-85
2022/09/21 06:29:30;;;;;;;12.67;10.60;;;7.60;99.90;;;;;;5036303;28;20966;-85
2022/09/21 06:31:56;;;;;;;12.40;11.10;;;7.60;99.90;;;;;;5047358;28;21214;-78
2022/09/21 06:34:23;;;;;;;14.17;11.30;;;7.60;99.90;;;;;;5041937;28;20441;-78
2022/09/21 06:36:50;;;;;;;10.20;9.20;;;7.70;99.90;;;;;;5036058;28;20553;-79
2022/09/21 06:39:18;;;;;;;12.57;10.20;;;7.70;99.90;;;;;;5038493;28;20453;-78
2022/09/21 06:41:44;;;;;;;12.07;10.77;;;7.60;99.90;;;;;;5037901;28;20466;-77
2022/09/21 06:44:11;;;;;;;14.20;11.20;;;7.70;99.90;;;;;;5041746;28;20444;-78
2022/09/21 06:46:38;;;;;;;12.80;11.60;;;7.70;99.90;;;;;;5045699;28;20436;-77
2022/09/21 06:49:05;;;;;;;13.90;11.17;;;7.80;99.90;;;;;;5046395;28;20445;-78
2022/09/21 06:51:32;;;;;;;13.30;10.83;;;7.90;99.90;;;;;;5046921;28;20468;-78
2022/09/21 06:54:00;;;;;;;12.40;10.77;;;8.00;99.90;;;;;;5042047;28;20469;-86
2022/09/21 06:56:30;;;;;;;11.13;10.00;;;8.20;99.90;;;;;;5039943;28;20481;-86
2022/09/21 07:22:45;;;;;;;16.80;11.77;;;9.20;99.90;;;;;;5070443;28;20479;-86
2022/09/21 07:26:23;;;;;;;;;;;;;;;;;;;;;
2022/09/21 07:29:34;;;;;;;;;;;;;;;;;;;;;
2022/09/21 07:49:23;;;;;;;11.80;9.50;;;10.40;99.90;;;;;;4880499;29;20460;-87
2022/09/21 07:51:50;;;;;;;12.20;9.40;;;10.60;99.90;;;;;;4892612;29;20521;-88
2022/09/21 07:54:16;;;;;;;11.73;8.20;;;10.80;99.90;;;;;;4989370;28;20440;-87
2022/09/21 07:59:04;;;;;;;13.70;11.63;;;11.10;99.90;;;;;;5067967;28;20490;-87
2022/09/21 07:59:31;;;;;;;16.10;9.57;;;11.30;99.90;;;;;;5059683;28;20467;-87
2022/09/21 08:01:59;;;;;;;12.63;9.07;;;11.60;99.90;;;;;;5069845;28;20470;-86
2022/09/21 08:04:29;;;;;;;9.70;8.70;;;11.60;99.90;;;;;;5069891;28;20856;-87
2022/09/21 08:06:56;;;;;;;11.73;8.80;;;11.60;99.90;;;;;;5081770;28;20447;-87
2022/09/21 08:09:23;;;;;;;10.10;8.53;;;11.80;99.90;;;;;;5099066;28;20430;-87
2022/09/21 08:11:51;;;;;;;11.27;10.07;;;11.90;99.90;;;;;;5083977;28;20462;-86
2022/09/21 08:14:19;;;;;;;11.60;8.60;;;12.10;99.90;;;;;;5080895;28;20445;-86
2022/09/21 08:16:46;;;;;;;12.97;9.10;;;12.40;99.90;;;;;;5082097;28;20448;-86
2022/09/21 08:19:14;;;;;;;10.13;8.60;;;12.70;99.90;;;;;;5079657;28;20432;-85
2022/09/21 08:21:43;;;;;;;9.90;8.90;;;13.20;99.90;;;;;;5063606;28;20526;-86
2022/09/21 08:24:10;;;;;;;10.03;8.30;;;13.90;99.90;;;;;;5068742;28;20488;-88
2022/09/21 08:26:36;;;;;;;9.00;7.73;;;14.00;99.90;;;;;;5066722;28;20444;-88
2022/09/21 08:29:06;;;;;;;15.77;8.37;;;13.90;99.90;;;;;;5068170;28;20435;-88
2022/09/21 08:31:33;;;;;;;11.10;8.63;;;14.40;99.90;;;;;;5066227;28;20459;-87
2022/09/21 08:34:00;;;;;;;9.30;7.33;;;14.60;99.90;;;;;;5071035;28;20446;-88
2022/09/21 08:36:27;;;;;;;9.00;7.40;;;14.70;99.90;;;;;;5073238;28;20515;-87
2022/09/21 08:38:55;;;;;;;13.13;7.93;;;14.60;99.90;;;;;;5067398;28;20821;-88
2022/09/21 08:41:25;;;;;;;8.87;7.97;;;14.50;99.90;;;;;;5060925;28;20473;-87
2022/09/21 08:43:55;;;;;;;11.10;8.00;;;14.50;99.90;;;;;;5069911;28;20441;-88
2022/09/21 08:46:24;;;;;;;10.50;6.53;;;14.60;99.90;;;;;;5065099;28;20988;-87
2022/09/21 08:48:57;;;;;;;10.30;6.77;;;14.70;99.90;;;;;;5068215;28;20448;-88
2022/09/21 08:51:28;;;;;;;16.97;7.80;;;14.90;99.90;;;;;;5068899;28;20468;-87
2022/09/21 08:54:01;;;;;;;11.83;7.43;;;15.40;99.90;;;;;;5069509;28;20440;-87
2022/09/21 08:56:27;;;;;;;11.63;7.07;;;15.60;99.90;;;;;;5066879;28;20529;-86
2022/09/21 08:59:14;;;;;;;11.97;6.40;;;15.50;99.90;;;;;;5064328;28;20802;-88
2022/09/21 09:02:40;;;;;;;7.50;5.70;;;15.70;99.90;;;;;;5067026;28;20459;-88
2022/09/21 09:05:22;;;;;;;8.80;4.90;;;18.60;97.30;;;;;;5038855;28;20449;-87
2022/09/21 09:08:06;;;;;;;10.30;3.77;;;22.40;87.90;;;;;;5066135;28;20471;-87
2022/09/21 09:10:38;;;;;;;5.50;3.50;;;25.40;74.20;;;;;;5064654;28;20459;-87
2022/09/21 09:13:24;;;;;;;3.60;3.23;;;27.70;62.50;;;;;;5066146;28;20446;-88
2022/09/21 09:16:01;;;;;;;5.13;3.13;;;29.20;55.40;;;;;;5066725;28;20464;-87
2022/09/21 09:18:38;;;;;;;2.33;2.00;;;29.50;52.20;;;;;;5068476;28;20439;-88
2022/09/21 09:21:10;;;;;;;2.70;2.27;;;30.90;49.90;;;;;;5067237;28;20484;-88
2022/09/21 09:23:43;;;;;;;3.70;2.23;;;31.40;46.90;;;;;;5067618;28;20429;-88
2022/09/21 09:26:18;;;;;;;2.80;1.87;;;31.20;46.00;;;;;;5065970;28;20508;-87
2022/09/21 09:28:51;;;;;;;2.43;1.73;;;32.30;44.50;;;;;;5067923;28;20443;-87
2022/09/21 09:31:21;;;;;;;3.47;1.93;;;33.00;42.40;;;;;;5066054;28;20453;-87
2022/09/21 09:33:55;;;;;;;2.67;2.10;;;33.20;40.90;;;;;;5075505;28;20452;-85
2022/09/21 09:36:25;;;;;;;2.33;1.60;;;33.50;40.70;;;;;;5077502;28;20540;-86
2022/09/21 09:38:56;;;;;;;3.60;2.30;;;33.20;39.70;;;;;;5068604;28;20443;-87
2022/09/21 09:42:16;;;;;;;2.77;2.07;;;31.80;40.70;;;;;;5067785;28;20966;-86
2022/09/21 09:45:03;;;;;;;3.27;1.67;;;31.20;43.20;;;;;;5043177;28;20443;-86
2022/09/21 09:47:41;;;;;;;5.00;1.50;;;31.60;41.50;;;;;;5071728;28;20476;-86
2022/09/21 09:50:13;;;;;;;3.10;1.40;;;30.20;41.80;;;;;;5083705;28;20511;-85
2022/09/21 09:52:40;;;;;;;2.20;1.10;;;30.10;42.10;;;;;;5079044;28;20475;-85
2022/09/21 09:55:19;;;;;;;1.77;1.27;;;30.00;41.70;;;;;;5072531;28;20439;-87
2022/09/21 09:57:48;;;;;;;2.80;1.13;;;30.70;39.60;;;;;;5075715;28;20450;-87
2022/09/21 10:00:17;;;;;;;2.33;1.53;;;29.20;41.50;;;;;;5066898;28;20416;-87
2022/09/21 10:02:48;;;;;;;3.07;1.73;;;28.40;42.70;;;;;;5077366;28;20428;-86
2022/09/21 10:05:31;;;;;;;1.50;1.00;;;29.90;42.50;;;;;;5068852;28;20487;-87
2022/09/21 10:07:58;;;;;;;3.13;1.27;;;30.30;40.70;;;;;;5074454;28;20480;-86
2022/09/21 10:10:32;;;;;;;3.63;1.93;;;30.00;40.80;;;;;;5079340;28;20436;-87
2022/09/21 10:13:09;;;;;;;2.30;1.07;;;27.00;43.60;;;;;;5062337;28;20478;-86
2022/09/21 10:15:42;;;;;;;1.30;0.93;;;27.10;46.80;;;;;;5046557;28;20441;-87
2022/09/21 10:18:21;;;;;;;2.10;0.87;;;27.70;44.90;;;;;;5059154;28;20464;-85
2022/09/21 10:20:56;;;;;;;2.67;1.00;;;29.20;43.40;;;;;;5074245;28;20464;-85
2022/09/21 10:23:24;;;;;;;2.50;1.47;;;29.40;39.80;;;;;;5063138;28;20814;-85
2022/09/21 10:25:57;;;;;;;2.83;1.40;;;28.00;41.70;;;;;;5057721;28;20451;-85
2022/09/21 10:28:25;;;;;;;2.30;0.90;;;27.00;43.20;;;;;;5054209;28;20429;-86
2022/09/21 10:31:08;;;;;;;2.20;1.10;;;27.50;43.40;;;;;;5065308;28;20465;-87
2022/09/21 10:33:49;;;;;;;2.00;1.00;;;29.50;41.80;;;;;;5047172;28;20425;-86
2022/09/21 10:36:31;;;;;;;1.57;0.97;;;31.00;39.70;;;;;;5067819;28;20410;-85
2022/09/21 10:39:21;;;;;;;2.53;1.27;;;31.00;38.50;;;;;;5065891;28;20488;-85
2022/09/21 10:41:50;;;;;;;1.40;1.07;;;30.60;40.50;;;;;;5047325;28;20469;-86
2022/09/21 10:44:20;;;;;;;4.87;2.23;;;29.60;40.70;;;;;;5044807;28;20437;-87
2022/09/21 10:46:48;;;;;;;2.80;1.90;;;31.10;40.90;;;;;;5042865;28;20999;-86
2022/09/21 10:49:20;;;;;;;2.70;1.50;;;31.60;39.80;;;;;;5045734;28;20443;-87
2022/09/21 10:51:49;;;;;;;2.43;1.53;;;32.60;37.50;;;;;;5050287;28;20472;-87
2022/09/21 10:54:22;;;;;;;2.87;1.10;;;32.30;36.70;;;;;;5047871;28;20923;-87
2022/09/21 10:56:54;;;;;;;2.80;1.13;;;30.50;39.00;;;;;;5045274;28;20442;-87
2022/09/21 10:59:27;;;;;;;3.60;1.63;;;29.40;39.90;;;;;;5048272;28;20937;-87
2022/09/21 11:01:56;;;;;;;3.63;2.60;;;30.70;40.40;;;;;;5061946;28;20466;-86
2022/09/21 11:04:31;;;;;;;2.20;1.93;;;31.70;39.90;;;;;;5064417;28;20458;-85
2022/09/21 11:07:04;;;;;;;4.73;2.53;;;33.10;38.10;;;;;;5060025;28;20525;-85
2022/09/21 11:09:35;;;;;;;3.43;2.27;;;35.20;36.40;;;;;;5057220;28;20793;-85
2022/09/21 11:12:09;;;;;;;3.63;2.07;;;35.80;34.50;;;;;;5056836;28;20848;-86
2022/09/21 11:14:49;;;;;;;2.83;2.07;;;36.20;33.70;;;;;;5056340;28;20426;-86
2022/09/21 11:17:25;;;;;;;2.90;2.33;;;36.70;32.80;;;;;;5060641;28;20963;-85
2022/09/21 11:19:57;;;;;;;2.13;1.77;;;36.60;31.90;;;;;;5060908;28;20454;-86
2022/09/21 11:22:34;;;;;;;2.33;1.60;;;34.30;34.00;;;;;;5057488;28;20493;-85
2022/09/21 11:25:19;;;;;;;3.00;1.90;;;31.00;35.90;;;;;;5057565;28;20475;-85
2022/09/21 11:27:51;;;;;;;1.83;1.27;;;28.50;39.70;;;;;;5056932;28;20484;-86
2022/09/21 11:30:20;;;;;;;2.87;1.13;;;25.90;42.50;;;;;;5065041;28;20453;-85
2022/09/21 11:33:08;;;;;;;1.73;0.80;;;25.90;43.60;;;;;;5075567;28;20439;-84
2022/09/21 11:35:52;;;;;;;2.63;1.43;;;28.10;41.90;;;;;;5063317;28;20445;-85
2022/09/21 11:38:32;;;;;;;2.30;0.90;;;29.30;39.10;;;;;;5059236;28;20515;-86
2022/09/21 11:41:20;;;;;;;1.60;1.17;;;29.30;38.00;;;;;;5061172;28;20987;-85
2022/09/21 11:44:01;;;;;;;2.23;1.30;;;29.00;39.80;;;;;;5059509;28;20453;-86
2022/09/21 11:46:38;;;;;;;2.80;1.17;;;30.80;38.90;;;;;;5058815;28;20477;-86
2022/09/21 11:49:27;;;;;;;2.10;1.10;;;32.00;35.60;;;;;;5057936;28;20460;-86
2022/09/21 11:52:14;;;;;;;3.20;1.47;;;33.20;35.10;;;;;;5062015;28;20479;-86
2022/09/21 11:54:59;;;;;;;2.70;1.17;;;34.70;33.10;;;;;;5070132;28;20463;-84
2022/09/21 11:57:30;;;;;;;1.70;0.97;;;34.40;32.90;;;;;;5078122;28;20439;-84
2022/09/21 12:00:08;;;;;;;1.50;0.73;;;34.50;32.00;;;;;;5075479;28;20448;-85
2022/09/21 12:03:20;;;;;;;1.60;1.07;;;33.00;32.70;;;;;;5074328;28;20442;-86
2022/09/21 12:05:57;;;;;;;2.20;1.07;;;34.10;32.80;;;;;;5067807;28;20439;-86
2022/09/21 12:08:45;;;;;;;1.63;0.90;;;35.60;30.90;;;;;;5056987;28;20489;-86
2022/09/21 12:11:22;;;;;;;2.00;0.60;;;35.00;30.70;;;;;;5056369;28;20480;-86
2022/09/21 12:13:58;;;;;;;1.80;0.97;;;35.30;30.00;;;;;;5063890;28;20442;-84
2022/09/21 12:16:34;;;;;;;4.80;1.57;;;33.20;30.60;;;;;;5079408;28;20430;-83
2022/09/21 12:19:09;;;;;;;3.70;1.47;;;33.20;31.60;;;;;;5079255;28;20453;-83
2022/09/21 12:21:40;;;;;;;2.17;1.10;;;33.60;31.10;;;;;;5067539;28;20605;-86
2022/09/21 12:24:14;;;;;;;1.80;0.90;;;33.40;30.40;;;;;;5060593;28;20459;-84
2022/09/21 12:26:46;;;;;;;1.50;0.90;;;33.30;30.70;;;;;;5056189;28;20773;-85
2022/09/21 12:29:18;;;;;;;1.50;0.83;;;32.70;30.90;;;;;;5054823;28;20458;-85
2022/09/21 12:31:54;;;;;;;1.47;0.90;;;32.90;31.60;;;;;;5054822;28;20471;-84
2022/09/21 12:34:26;;;;;;;2.83;1.77;;;31.70;33.20;;;;;;5063409;28;20453;-83
2022/09/21 12:37:02;;;;;;;1.87;0.93;;;32.40;32.60;;;;;;5074093;28;20432;-84
2022/09/21 12:39:37;;;;;;;1.80;1.17;;;31.60;32.60;;;;;;5075340;28;20459;-87
2022/09/21 12:42:09;;;;;;;2.27;0.80;;;31.90;33.00;;;;;;5075603;28;20992;-86
2022/09/21 12:44:51;;;;;;;2.70;1.00;;;31.60;32.30;;;;;;5074084;28;20444;-87
2022/09/21 12:47:23;;;;;;;1.73;0.90;;;29.90;33.40;;;;;;5075329;28;20515;-90
2022/09/21 12:49:59;;;;;;;1.70;0.90;;;27.40;36.30;;;;;;5076978;28;20474;-90
2022/09/21 12:52:28;;;;;;;2.07;1.30;;;25.80;39.00;;;;;;5084989;28;20653;-89
2022/09/21 12:55:04;;;;;;;1.37;0.73;;;24.50;41.10;;;;;;5081691;28;20941;-87
2022/09/21 12:57:42;;;;;;;1.47;1.00;;;23.60;42.60;;;;;;5075934;28;20940;-88
2022/09/21 13:00:13;;;;;;;1.60;1.03;;;22.70;43.90;;;;;;5077126;28;20457;-88
2022/09/21 13:02:51;;;;;;;2.53;1.50;;;24.70;44.30;;;;;;5076102;28;20449;-88
2022/09/21 13:05:55;;;;;;;1.30;0.70;;;27.70;40.10;;;;;;5075388;28;20448;-88
2022/09/21 13:08:45;;;;;;;2.07;1.10;;;28.30;37.80;;;;;;5075338;28;21052;-88
2022/09/21 13:14:33;;;;;;;1.40;1.00;;;30.30;34.50;;;;;;5074511;28;20933;-88
2022/09/21 13:17:02;;;;;;;1.40;1.00;;;28.60;35.80;;;;;;5076911;28;20516;-88
2022/09/21 13:19:31;;;;;;;1.63;1.10;;;27.10;37.50;;;;;;5076145;28;20541;-88
2022/09/21 13:22:24;;;;;;;1.50;0.90;;;25.10;40.00;;;;;;5078585;28;20488;-89
2022/09/21 13:25:48;;;;;;;1.97;0.93;;;24.00;41.70;;;;;;5071857;28;20459;-89
2022/09/21 13:28:22;;;;;;;1.87;1.00;;;23.60;42.70;;;;;;5054563;28;20508;-87
2022/09/21 13:44:05;;;;;;;2.77;1.60;;;22.60;43.70;;;;;;5056603;28;20469;-87
2022/09/21 13:46:55;;;;;;;1.50;0.90;;;22.80;44.60;;;;;;5048222;28;20449;-87
2022/09/21 13:49:45;;;;;;;1.37;0.80;;;22.40;43.40;;;;;;5053089;28;20430;-87
2022/09/21 13:52:39;;;;;;;2.03;0.80;;;21.80;44.80;;;;;;5044179;28;20533;-88
2022/09/21 13:55:29;;;;;;;2.20;1.20;;;22.10;45.10;;;;;;5046579;28;20484;-88
2022/09/21 14:14:58;;;;;;;1.40;0.90;;;21.80;43.70;;;;;;4972721;28;20525;-87
2022/09/21 14:17:39;;;;;;;3.40;1.20;;;21.30;45.30;;;;;;4965425;28;20433;-87
2022/09/21 14:20:25;;;;;;;1.70;0.80;;;20.80;46.50;;;;;;4969555;28;20537;-87
2022/09/21 14:23:11;;;;;;;1.83;1.20;;;20.40;47.60;;;;;;5052337;28;20467;-87
2022/09/21 14:25:53;;;;;;;1.67;1.10;;;19.90;48.30;;;;;;5054942;28;20495;-88
2022/09/21 14:28:33;;;;;;;1.87;1.00;;;19.90;49.40;;;;;;5055171;28;20511;-87
2022/09/21 14:31:03;;;;;;;3.40;1.03;;;19.90;48.70;;;;;;5059121;28;20479;-87
2022/09/21 14:33:38;;;;;;;2.27;1.10;;;20.00;49.00;;;;;;5055606;28;20452;-87